Time,TemperatureF,DewpointF,PressureIn,WindDirection,WindDirectionDegrees,WindSpeedMPH,WindSpeedGustMPH,Humidity,HourlyPrecipIn,Conditions,Clouds,dailyrainin,SoftwareType,DateUTC
2013-03-22 00:00:00,49.8,38.1,29.95,SW,225,0.0,0.0,64,0.00,,,0.00,WeatherCatV1.14B232,2013-03-22 04:00:00,
2013-03-22 00:01:00,49.8,38.5,29.95,WSW,247,0.0,0.0,65,0.00,,,0.00,WeatherCatV1.14B232,2013-03-22 04:01:00,
2013-03-22 00:06:00,49.8,38.5,29.94,WSW,247,0.0,0.0,65,0.00,,,0.00,WeatherCatV1.14B232,2013-03-22 04:06:00,
2013-03-22 00:11:00,49.6,38.3,29.94,SW,225,0.0,0.0,65,0.00,,,0.00,WeatherCatV1.14B232,2013-03-22 04:11:00,
2013-03-22 00:16:00,49.6,38.3,29.95,SW,225,0.0,0.0,65,0.00,,,0.00,WeatherCatV1.14B232,2013-03-22 04:16:00,
2013-03-22 00:21:00,49.3,38.0,29.95,SW,225,0.0,0.0,65,0.00,,,0.00,WeatherCatV1.14B232,2013-03-22 04:21:00,
2013-03-22 00:26:00,49.3,38.4,29.95,SW,225,0.0,0.0,66,0.00,,,0.00,WeatherCatV1.14B232,2013-03-22 04:26:00,
2013-03-22 00:31:00,49.3,38.8,29.95,SW,225,0.0,0.0,67,0.00,,,0.00,WeatherCatV1.14B232,2013-03-22 04:31:00,
2013-03-22 00:36:00,49.1,38.6,29.95,SW,225,0.0,0.0,67,0.00,,,0.00,WeatherCatV1.14B232,2013-03-22 04:36:00,
2013-03-22 00:41:00,48.9,38.8,29.95,SW,225,0.0,0.0,68,0.00,,,0.00,WeatherCatV1.14B232,2013-03-22 04:41:00,
2013-03-22 00:46:00,48.9,38.8,29.95,SW,225,0.0,0.0,68,0.00,,,0.00,WeatherCatV1.14B232,2013-03-22 04:46:00,
2013-03-22 00:51:00,48.9,38.8,29.94,WSW,247,0.0,0.0,68,0.00,,,0.00,WeatherCatV1.14B232,2013-03-22 04:51:00,
2013-03-22 00:56:00,48.7,38.6,29.95,WSW,247,0.0,0.0,68,0.00,,,0.00,WeatherCatV1.14B232,2013-03-22 04:56:00,
2013-03-22 01:01:00,48.7,38.6,29.94,WSW,247,0.0,0.0,68,0.00,,,0.00,WeatherCatV1.14B232,2013-03-22 05:01:00,
2013-03-22 01:06:00,48.6,38.4,29.95,WSW,247,0.0,0.0,68,0.00,,,0.00,WeatherCatV1.14B232,2013-03-22 05:06:00,
2013-03-22 01:11:00,48.6,38.4,29.95,WSW,247,0.0,0.0,68,0.00,,,0.00,WeatherCatV1.14B232,2013-03-22 05:11:00,
2013-03-22 01:16:00,48.4,38.6,29.94,WSW,247,0.0,0.0,69,0.00,,,0.00,WeatherCatV1.14B232,2013-03-22 05:16:00,
2013-03-22 01:21:00,48.4,38.6,29.94,WSW,247,0.0,0.0,69,0.00,,,0.00,WeatherCatV1.14B232,2013-03-22 05:21:00,
2013-03-22 01:26:00,48.4,38.6,29.94,WSW,247,0.0,0.0,69,0.00,,,0.00,WeatherCatV1.14B232,2013-03-22 05:26:00,
2013-03-22 01:31:00,48.4,38.6,29.94,WNW,292,0.0,0.0,69,0.00,,,0.00,WeatherCatV1.14B232,2013-03-22 05:31:00,
2013-03-22 01:36:00,48.4,38.6,29.95,WSW,247,0.0,0.0,69,0.00,,,0.00,WeatherCatV1.14B232,2013-03-22 05:36:00,
2013-03-22 01:41:00,48.4,39.0,29.94,WSW,247,0.0,0.0,70,0.00,,,0.00,WeatherCatV1.14B232,2013-03-22 05:41:00,
2013-03-22 01:46:00,48.4,39.0,29.94,WNW,292,0.0,0.0,70,0.00,,,0.00,WeatherCatV1.14B232,2013-03-22 05:46:00,
2013-03-22 01:51:00,48.4,39.0,29.93,WSW,247,0.0,0.0,70,0.00,,,0.00,WeatherCatV1.14B232,2013-03-22 05:51:00,
2013-03-22 01:56:00,48.4,39.0,29.94,West,270,0.0,0.0,70,0.00,,,0.00,WeatherCatV1.14B232,2013-03-22 05:56:00,
2013-03-22 02:01:00,48.4,39.0,29.93,WNW,292,0.0,0.0,70,0.00,,,0.00,WeatherCatV1.14B232,2013-03-22 06:01:00,
2013-03-22 02:06:00,48.4,39.0,29.93,West,270,0.0,0.0,70,0.00,,,0.00,WeatherCatV1.14B232,2013-03-22 06:06:00,
2013-03-22 02:11:00,48.4,39.0,29.94,West,270,0.0,0.0,70,0.00,,,0.00,WeatherCatV1.14B232,2013-03-22 06:11:00,
2013-03-22 02:16:00,48.4,39.0,29.94,WSW,247,0.0,0.0,70,0.00,,,0.00,WeatherCatV1.14B232,2013-03-22 06:16:00,
2013-03-22 02:21:00,48.4,39.0,29.93,WSW,247,0.0,0.0,70,0.00,,,0.00,WeatherCatV1.14B232,2013-03-22 06:21:00,
2013-03-22 02:26:00,48.4,39.0,29.93,WNW,292,0.0,0.0,70,0.00,,,0.00,WeatherCatV1.14B232,2013-03-22 06:26:00,
2013-03-22 02:31:00,48.4,39.0,29.94,WSW,247,0.0,0.0,70,0.00,,,0.00,WeatherCatV1.14B232,2013-03-22 06:31:00,
2013-03-22 02:36:00,48.4,39.4,29.95,WSW,247,0.0,0.0,71,0.00,,,0.00,WeatherCatV1.14B232,2013-03-22 06:36:00,
2013-03-22 02:41:00,48.4,39.4,29.95,WSW,247,0.0,0.0,71,0.00,,,0.00,WeatherCatV1.14B232,2013-03-22 06:41:00,
2013-03-22 02:46:00,48.4,39.4,29.95,WSW,247,0.0,0.0,71,0.00,,,0.00,WeatherCatV1.14B232,2013-03-22 06:46:00,
2013-03-22 02:51:00,48.4,39.4,29.95,WNW,292,0.0,0.0,71,0.00,,,0.00,WeatherCatV1.14B232,2013-03-22 06:51:00,
2013-03-22 02:56:00,48.6,39.5,29.95,WNW,292,0.0,0.0,71,0.00,,,0.00,WeatherCatV1.14B232,2013-03-22 06:56:00,
2013-03-22 03:03:00,48.6,39.5,29.94,WSW,247,0.0,0.0,71,0.00,,,0.00,WeatherCatV1.14B232,2013-03-22 07:03:00,
2013-03-22 03:08:00,48.7,39.7,29.94,West,270,0.0,0.0,71,0.00,,,0.00,WeatherCatV1.14B232,2013-03-22 07:08:00,
2013-03-22 03:13:00,48.7,39.7,29.94,WSW,247,0.0,0.0,71,0.00,,,0.00,WeatherCatV1.14B232,2013-03-22 07:13:00,
2013-03-22 03:18:00,48.7,39.7,29.94,WSW,247,0.0,0.0,71,0.00,,,0.00,WeatherCatV1.14B232,2013-03-22 07:18:00,
2013-03-22 03:23:00,48.9,39.9,29.94,WSW,247,0.0,0.0,71,0.00,,,0.00,WeatherCatV1.14B232,2013-03-22 07:23:00,
2013-03-22 03:28:00,48.9,39.9,29.94,NW,315,0.0,0.0,71,0.00,,,0.00,WeatherCatV1.14B232,2013-03-22 07:28:00,
2013-03-22 03:33:00,48.9,39.9,29.94,WNW,292,0.0,0.0,71,0.00,,,0.00,WeatherCatV1.14B232,2013-03-22 07:33:00,
2013-03-22 03:38:00,48.9,39.9,29.94,WSW,247,0.0,0.0,71,0.00,,,0.00,WeatherCatV1.14B232,2013-03-22 07:38:00,
2013-03-22 03:43:00,48.9,39.9,29.94,WNW,292,0.0,0.0,71,0.00,,,0.00,WeatherCatV1.14B232,2013-03-22 07:43:00,
2013-03-22 03:48:00,48.7,39.7,29.94,WSW,247,0.0,0.0,71,0.00,,,0.00,WeatherCatV1.14B232,2013-03-22 07:48:00,
2013-03-22 03:53:00,48.7,39.7,29.94,WSW,247,0.0,0.0,71,0.00,,,0.00,WeatherCatV1.14B232,2013-03-22 07:53:00,
2013-03-22 03:58:00,48.7,39.7,29.95,WNW,292,0.0,0.0,71,0.00,,,0.00,WeatherCatV1.14B232,2013-03-22 07:58:00,
2013-03-22 04:03:00,48.6,39.9,29.95,WNW,292,0.0,0.0,72,0.00,,,0.00,WeatherCatV1.14B232,2013-03-22 08:03:00,
2013-03-22 04:08:00,48.4,39.7,29.94,WNW,292,0.0,0.0,72,0.00,,,0.00,WeatherCatV1.14B232,2013-03-22 08:08:00,
2013-03-22 04:13:00,48.4,39.7,29.95,West,270,0.0,0.0,72,0.00,,,0.00,WeatherCatV1.14B232,2013-03-22 08:13:00,
2013-03-22 04:18:00,48.4,39.7,29.95,WNW,292,0.0,0.0,72,0.00,,,0.00,WeatherCatV1.14B232,2013-03-22 08:18:00,
2013-03-22 04:23:00,48.4,39.7,29.94,WNW,292,0.0,0.0,72,0.00,,,0.00,WeatherCatV1.14B232,2013-03-22 08:23:00,
2013-03-22 04:28:00,48.6,39.9,29.94,WSW,247,0.0,0.0,72,0.00,,,0.00,WeatherCatV1.14B232,2013-03-22 08:28:00,
2013-03-22 04:33:00,48.6,39.9,29.93,WSW,247,0.0,0.0,72,0.00,,,0.00,WeatherCatV1.14B232,2013-03-22 08:33:00,
2013-03-22 04:38:00,48.7,40.1,29.93,WNW,292,0.0,0.0,72,0.00,,,0.00,WeatherCatV1.14B232,2013-03-22 08:38:00,
2013-03-22 04:43:00,48.7,40.4,29.93,WSW,247,0.0,0.0,73,0.00,,,0.00,WeatherCatV1.14B232,2013-03-22 08:43:00,
2013-03-22 04:48:00,48.7,40.4,29.92,WSW,247,0.0,0.0,73,0.00,,,0.00,WeatherCatV1.14B232,2013-03-22 08:48:00,
2013-03-22 04:53:00,48.9,40.6,29.94,West,270,0.0,0.0,73,0.00,,,0.00,WeatherCatV1.14B232,2013-03-22 08:53:00,
2013-03-22 04:58:00,48.9,40.6,29.94,NW,315,0.0,0.0,73,0.00,,,0.00,WeatherCatV1.14B232,2013-03-22 08:58:00,
2013-03-22 05:03:00,49.1,40.8,29.94,West,270,0.0,0.0,73,0.00,,,0.00,WeatherCatV1.14B232,2013-03-22 09:03:00,
2013-03-22 05:08:00,49.3,40.9,29.95,West,270,0.0,0.0,73,0.00,,,0.00,WeatherCatV1.14B232,2013-03-22 09:08:00,
2013-03-22 05:13:00,49.3,40.9,29.94,West,270,0.0,0.0,73,0.00,,,0.00,WeatherCatV1.14B232,2013-03-22 09:13:00,
2013-03-22 05:18:00,49.3,40.9,29.94,West,270,0.0,0.0,73,0.00,,,0.00,WeatherCatV1.14B232,2013-03-22 09:18:00,
2013-03-22 05:23:00,49.5,41.1,29.95,NW,315,0.0,0.0,73,0.00,,,0.00,WeatherCatV1.14B232,2013-03-22 09:23:00,
2013-03-22 05:28:00,49.6,41.3,29.95,WNW,292,0.0,0.0,73,0.00,,,0.00,WeatherCatV1.14B232,2013-03-22 09:28:00,
2013-03-22 05:33:00,49.6,41.3,29.96,NW,315,0.0,0.0,73,0.00,,,0.00,WeatherCatV1.14B232,2013-03-22 09:33:00,
2013-03-22 05:38:00,49.6,41.3,29.96,NW,315,0.0,0.0,73,0.00,,,0.00,WeatherCatV1.14B232,2013-03-22 09:38:00,
2013-03-22 05:43:00,49.6,41.3,29.96,NNW,337,0.0,0.0,73,0.00,,,0.00,WeatherCatV1.14B232,2013-03-22 09:43:00,
2013-03-22 05:48:00,49.6,41.3,29.97,NNW,337,0.0,0.0,73,0.00,,,0.00,WeatherCatV1.14B232,2013-03-22 09:48:00,
2013-03-22 05:53:00,49.8,41.5,29.97,WSW,247,0.0,0.0,73,0.00,,,0.00,WeatherCatV1.14B232,2013-03-22 09:53:00,
2013-03-22 05:58:00,49.8,41.5,29.98,North,0,0.0,0.0,73,0.00,,,0.00,WeatherCatV1.14B232,2013-03-22 09:58:00,
2013-03-22 06:03:00,50.0,41.7,29.98,WSW,247,2.0,2.0,73,0.00,,,0.00,WeatherCatV1.14B232,2013-03-22 10:03:00,
2013-03-22 06:08:00,50.2,41.8,29.98,SW,225,0.0,0.0,73,0.00,,,0.00,WeatherCatV1.14B232,2013-03-22 10:08:00,
2013-03-22 06:13:00,50.2,41.8,29.98,NW,315,0.0,0.0,72,0.00,,,0.00,WeatherCatV1.14B232,2013-03-22 10:13:00,
2013-03-22 06:18:00,50.4,42.0,29.98,NW,315,0.0,0.0,73,0.00,,,0.00,WeatherCatV1.14B232,2013-03-22 10:18:00,
2013-03-22 06:23:00,50.5,41.9,29.98,West,270,0.0,0.0,72,0.00,,,0.00,WeatherCatV1.14B232,2013-03-22 10:23:00,
2013-03-22 06:28:00,50.7,42.0,29.98,NNE,22,0.0,0.0,72,0.00,,,0.00,WeatherCatV1.14B232,2013-03-22 10:28:00,
2013-03-22 06:33:00,50.7,42.0,29.97,ENE,67,2.7,2.7,72,0.00,,,0.00,WeatherCatV1.14B232,2013-03-22 10:33:00,
2013-03-22 06:38:00,50.7,41.7,29.97,NNE,22,2.5,2.5,71,0.00,,,0.00,WeatherCatV1.14B232,2013-03-22 10:38:00,
2013-03-22 06:43:00,51.3,41.5,29.98,WNW,292,0.0,0.0,69,0.00,,,0.00,WeatherCatV1.14B232,2013-03-22 10:43:00,
2013-03-22 06:48:00,51.4,41.7,29.98,ENE,67,2.2,2.2,69,0.00,,,0.00,WeatherCatV1.14B232,2013-03-22 10:48:00,
2013-03-22 06:53:00,51.6,41.8,29.99,NNE,22,1.1,1.1,69,0.00,,,0.00,WeatherCatV1.14B232,2013-03-22 10:53:00,
2013-03-22 06:58:00,52.0,41.4,30.00,NNE,22,0.0,2.5,67,0.00,,,0.00,WeatherCatV1.14B232,2013-03-22 10:58:00,
2013-03-22 07:03:00,52.3,41.3,30.00,NE,45,1.6,2.9,66,0.00,,,0.00,WeatherCatV1.14B232,2013-03-22 11:03:00,
2013-03-22 07:08:00,52.7,41.2,30.00,NW,315,2.9,2.9,65,0.00,,,0.00,WeatherCatV1.14B232,2013-03-22 11:08:00,
2013-03-22 07:13:00,52.9,40.6,30.01,ENE,67,2.5,5.4,63,0.00,,,0.00,WeatherCatV1.14B232,2013-03-22 11:13:00,
2013-03-22 07:18:00,53.2,41.3,30.01,ENE,67,4.2,4.2,64,0.00,,,0.00,WeatherCatV1.14B232,2013-03-22 11:18:00,
2013-03-22 07:23:00,53.4,41.1,30.01,NE,45,0.9,0.9,63,0.00,,,0.00,WeatherCatV1.14B232,2013-03-22 11:23:00,
2013-03-22 07:28:00,53.4,41.1,30.01,ENE,67,1.8,1.8,63,0.00,,,0.00,WeatherCatV1.14B232,2013-03-22 11:28:00,
2013-03-22 07:33:00,53.4,40.7,30.01,East,90,0.0,0.0,62,0.00,,,0.00,WeatherCatV1.14B232,2013-03-22 11:33:00,
2013-03-22 07:38:00,53.4,40.7,30.02,North,0,1.8,1.8,62,0.00,,,0.00,WeatherCatV1.14B232,2013-03-22 11:38:00,
2013-03-22 07:43:00,53.8,41.1,30.02,NE,45,6.5,6.5,62,0.00,,,0.00,WeatherCatV1.14B232,2013-03-22 11:43:00,
2013-03-22 07:48:00,53.8,40.7,30.02,SSW,202,1.6,1.6,61,0.00,,,0.00,WeatherCatV1.14B232,2013-03-22 11:48:00,
2013-03-22 07:53:00,53.8,40.7,30.02,East,90,2.5,2.5,61,0.00,,,0.00,WeatherCatV1.14B232,2013-03-22 11:53:00,
2013-03-22 07:58:00,53.8,40.7,30.02,NNE,22,0.0,3.6,61,0.00,,,0.00,WeatherCatV1.14B232,2013-03-22 11:58:00,
2013-03-22 08:03:00,53.8,40.3,30.03,NNE,22,1.6,1.6,60,0.00,,,0.00,WeatherCatV1.14B232,2013-03-22 12:03:00,
2013-03-22 08:08:00,53.8,40.3,30.03,North,0,3.1,3.1,60,0.00,,,0.00,WeatherCatV1.14B232,2013-03-22 12:08:00,
2013-03-22 08:13:00,54.0,40.4,30.04,ENE,67,3.1,8.7,60,0.00,,,0.00,WeatherCatV1.14B232,2013-03-22 12:13:00,
2013-03-22 08:18:00,54.1,40.6,30.04,West,270,0.0,0.0,60,0.00,,,0.00,WeatherCatV1.14B232,2013-03-22 12:18:00,
2013-03-22 08:23:00,54.1,40.6,30.04,ENE,67,2.5,2.5,60,0.00,,,0.00,WeatherCatV1.14B232,2013-03-22 12:23:00,
2013-03-22 08:28:00,54.3,40.3,30.05,ENE,67,3.6,3.6,59,0.00,,,0.00,WeatherCatV1.14B232,2013-03-22 12:28:00,
2013-03-22 08:33:00,54.1,40.1,30.05,NNE,22,5.4,5.4,59,0.00,,,0.00,WeatherCatV1.14B232,2013-03-22 12:33:00,
2013-03-22 08:38:00,54.3,40.3,30.05,ENE,67,4.0,4.0,59,0.00,,,0.00,WeatherCatV1.14B232,2013-03-22 12:38:00,
2013-03-22 08:43:00,54.3,40.3,30.04,ENE,67,3.8,3.8,59,0.00,,,0.00,WeatherCatV1.14B232,2013-03-22 12:43:00,
2013-03-22 08:48:00,54.5,40.4,30.04,NE,45,5.6,5.6,59,0.00,,,0.00,WeatherCatV1.14B232,2013-03-22 12:48:00,
2013-03-22 08:53:00,54.5,40.4,30.05,ENE,67,4.0,4.0,59,0.00,,,0.00,WeatherCatV1.14B232,2013-03-22 12:53:00,
2013-03-22 08:58:00,54.5,40.4,30.05,NE,45,5.8,5.8,59,0.00,,,0.00,WeatherCatV1.14B232,2013-03-22 12:58:00,
2013-03-22 09:03:00,54.7,40.1,30.05,NE,45,3.4,3.4,58,0.00,,,0.00,WeatherCatV1.14B232,2013-03-22 13:03:00,
2013-03-22 09:08:00,54.7,40.1,30.05,ENE,67,2.9,2.9,58,0.00,,,0.00,WeatherCatV1.14B232,2013-03-22 13:08:00,
2013-03-22 09:13:00,54.9,40.3,30.05,NNE,22,9.8,9.8,58,0.00,,,0.00,WeatherCatV1.14B232,2013-03-22 13:13:00,
2013-03-22 09:18:00,55.0,40.0,30.04,NE,45,3.1,3.1,57,0.00,,,0.00,WeatherCatV1.14B232,2013-03-22 13:18:00,
2013-03-22 09:23:00,55.0,40.5,30.04,NE,45,2.9,2.9,58,0.00,,,0.00,WeatherCatV1.14B232,2013-03-22 13:23:00,
2013-03-22 09:28:00,55.2,40.6,30.04,ENE,67,3.8,3.8,58,0.00,,,0.00,WeatherCatV1.14B232,2013-03-22 13:28:00,
2013-03-22 09:33:00,55.2,40.6,30.03,ESE,112,3.8,3.8,58,0.00,,,0.00,WeatherCatV1.14B232,2013-03-22 13:33:00,
2013-03-22 09:38:00,55.2,40.6,30.03,NE,45,8.5,8.5,58,0.00,,,0.00,WeatherCatV1.14B232,2013-03-22 13:38:00,
2013-03-22 09:43:00,55.6,41.0,30.03,NE,45,3.8,5.6,58,0.00,,,0.00,WeatherCatV1.14B232,2013-03-22 13:43:00,
2013-03-22 09:48:00,55.8,41.1,30.03,West,270,0.0,0.0,58,0.00,,,0.00,WeatherCatV1.14B232,2013-03-22 13:48:00,
2013-03-22 09:53:00,56.1,41.0,30.03,ENE,67,3.4,3.4,57,0.00,,,0.00,WeatherCatV1.14B232,2013-03-22 13:53:00,
2013-03-22 09:58:00,56.5,40.9,30.04,East,90,4.2,4.2,56,0.00,,,0.00,WeatherCatV1.14B232,2013-03-22 13:58:00,
2013-03-22 10:03:00,56.8,41.3,30.05,East,90,4.9,4.9,56,0.00,,,0.00,WeatherCatV1.14B232,2013-03-22 14:03:00,
2013-03-22 10:08:00,56.8,41.3,30.05,NNE,22,0.0,0.0,56,0.00,,,0.00,WeatherCatV1.14B232,2013-03-22 14:08:00,
2013-03-22 10:13:00,57.0,41.5,30.05,East,90,0.0,8.9,56,0.00,,,0.00,WeatherCatV1.14B232,2013-03-22 14:13:00,
2013-03-22 10:18:00,57.2,41.6,30.06,East,90,1.6,1.6,56,0.00,,,0.00,WeatherCatV1.14B232,2013-03-22 14:18:00,
2013-03-22 10:23:00,57.4,41.3,30.05,ESE,112,0.9,0.9,55,0.00,,,0.00,WeatherCatV1.14B232,2013-03-22 14:23:00,
2013-03-22 10:28:00,57.6,41.5,30.06,East,90,6.5,6.5,55,0.00,,,0.00,WeatherCatV1.14B232,2013-03-22 14:28:00,
2013-03-22 10:33:00,57.7,41.7,30.06,SE,135,10.3,10.3,55,0.00,,,0.00,WeatherCatV1.14B232,2013-03-22 14:33:00,
2013-03-22 10:38:00,57.7,41.7,30.05,ENE,67,6.3,6.3,55,0.00,,,0.00,WeatherCatV1.14B232,2013-03-22 14:38:00,
2013-03-22 10:43:00,57.9,41.4,30.05,ESE,112,1.3,6.3,54,0.00,,,0.00,WeatherCatV1.14B232,2013-03-22 14:43:00,
2013-03-22 10:48:00,58.1,41.1,30.05,ENE,67,1.3,1.3,53,0.00,,,0.00,WeatherCatV1.14B232,2013-03-22 14:48:00,
2013-03-22 10:53:00,58.3,41.7,30.05,ESE,112,2.5,2.5,54,0.00,,,0.00,WeatherCatV1.14B232,2013-03-22 14:53:00,
2013-03-22 10:58:00,58.8,41.7,30.05,East,90,3.8,3.8,53,0.00,,,0.00,WeatherCatV1.14B232,2013-03-22 14:58:00,
2013-03-22 11:03:00,58.8,42.2,30.05,NE,45,0.0,0.0,54,0.00,,,0.00,WeatherCatV1.14B232,2013-03-22 15:03:00,
2013-03-22 11:08:00,59.2,43.0,30.06,SSE,157,1.1,1.1,55,0.00,,,0.00,WeatherCatV1.14B232,2013-03-22 15:08:00,
2013-03-22 11:13:00,59.4,42.7,30.05,NE,45,0.0,3.1,54,0.00,,,0.00,WeatherCatV1.14B232,2013-03-22 15:13:00,
2013-03-22 11:18:00,59.7,43.0,30.05,NNE,22,7.6,7.6,54,0.00,,,0.00,WeatherCatV1.14B232,2013-03-22 15:18:00,
2013-03-22 11:23:00,59.9,43.2,30.05,ENE,67,0.0,0.0,54,0.00,,,0.00,WeatherCatV1.14B232,2013-03-22 15:23:00,
2013-03-22 11:28:00,60.4,43.7,30.05,NE,45,4.0,4.9,54,0.00,,,0.00,WeatherCatV1.14B232,2013-03-22 15:28:00,
2013-03-22 11:33:00,60.6,43.8,30.05,ESE,112,0.0,2.2,54,0.00,,,0.00,WeatherCatV1.14B232,2013-03-22 15:33:00,
2013-03-22 11:38:00,61.2,44.3,30.05,South,180,0.0,0.0,54,0.00,,,0.00,WeatherCatV1.14B232,2013-03-22 15:38:00,
2013-03-22 11:43:00,61.5,43.7,30.05,SSE,157,0.0,0.0,52,0.00,,,0.00,WeatherCatV1.14B232,2013-03-22 15:43:00,
2013-03-22 11:48:00,61.5,43.2,30.05,SSE,157,0.0,0.0,51,0.00,,,0.00,WeatherCatV1.14B232,2013-03-22 15:48:00,
2013-03-22 11:53:00,61.5,43.7,30.05,South,180,0.0,0.0,52,0.00,,,0.00,WeatherCatV1.14B232,2013-03-22 15:53:00,
2013-03-22 11:58:00,61.7,43.9,30.05,SW,225,0.0,0.0,52,0.00,,,0.00,WeatherCatV1.14B232,2013-03-22 15:58:00,
2013-03-22 12:03:00,61.9,44.0,30.06,ENE,67,0.0,0.0,52,0.00,,,0.00,WeatherCatV1.14B232,2013-03-22 16:03:00,
2013-03-22 12:08:00,62.2,44.3,30.05,ESE,112,2.7,2.7,52,0.00,,,0.00,WeatherCatV1.14B232,2013-03-22 16:08:00,
2013-03-22 12:13:00,62.4,44.5,30.06,SSE,157,1.3,2.9,52,0.00,,,0.00,WeatherCatV1.14B232,2013-03-22 16:13:00,
2013-03-22 12:18:00,62.8,44.8,30.05,NNE,22,0.0,0.0,52,0.00,,,0.00,WeatherCatV1.14B232,2013-03-22 16:18:00,
2013-03-22 12:23:00,63.1,44.7,30.06,ENE,67,1.8,1.8,51,0.00,,,0.00,WeatherCatV1.14B232,2013-03-22 16:23:00,
2013-03-22 12:28:00,63.3,44.8,30.06,ESE,112,0.0,1.1,51,0.00,,,0.00,WeatherCatV1.14B232,2013-03-22 16:28:00,
2013-03-22 12:33:00,63.7,45.2,30.06,NNE,22,3.6,3.6,51,0.00,,,0.00,WeatherCatV1.14B232,2013-03-22 16:33:00,
2013-03-22 12:38:00,63.7,45.2,30.06,North,0,5.4,5.4,51,0.00,,,0.00,WeatherCatV1.14B232,2013-03-22 16:38:00,
2013-03-22 12:43:00,64.0,45.5,30.06,ENE,67,1.3,3.4,51,0.00,,,0.00,WeatherCatV1.14B232,2013-03-22 16:43:00,
2013-03-22 12:48:00,64.2,45.6,30.06,South,180,1.3,1.3,51,0.00,,,0.00,WeatherCatV1.14B232,2013-03-22 16:48:00,
2013-03-22 12:53:00,64.2,45.2,30.06,ESE,112,2.2,2.2,50,0.00,,,0.00,WeatherCatV1.14B232,2013-03-22 16:53:00,
2013-03-22 12:58:00,64.0,45.0,30.06,SE,135,2.5,2.5,50,0.00,,,0.00,WeatherCatV1.14B232,2013-03-22 16:58:00,
2013-03-22 13:03:00,63.9,44.8,30.06,North,0,0.0,0.0,50,0.00,,,0.00,WeatherCatV1.14B232,2013-03-22 17:03:00,
2013-03-22 13:08:00,63.7,44.7,30.06,North,0,0.0,0.0,50,0.00,,,0.00,WeatherCatV1.14B232,2013-03-22 17:08:00,
2013-03-22 13:13:00,63.7,44.7,30.06,North,0,1.3,1.3,50,0.00,,,0.00,WeatherCatV1.14B232,2013-03-22 17:13:00,
2013-03-22 13:18:00,63.7,44.7,30.06,NE,45,4.2,4.2,50,0.00,,,0.00,WeatherCatV1.14B232,2013-03-22 17:18:00,
2013-03-22 13:23:00,63.7,44.7,30.05,NNE,22,2.5,2.5,50,0.00,,,0.00,WeatherCatV1.14B232,2013-03-22 17:23:00,
2013-03-22 13:28:00,63.7,44.7,30.05,NE,45,3.8,5.4,50,0.00,,,0.00,WeatherCatV1.14B232,2013-03-22 17:28:00,
2013-03-22 13:33:00,64.0,45.0,30.05,East,90,1.1,1.1,50,0.00,,,0.00,WeatherCatV1.14B232,2013-03-22 17:33:00,
2013-03-22 13:38:00,64.0,45.0,30.04,NNE,22,0.0,0.0,50,0.00,,,0.00,WeatherCatV1.14B232,2013-03-22 17:38:00,
2013-03-22 13:43:00,64.2,45.2,30.04,NE,45,2.5,7.4,50,0.00,,,0.00,WeatherCatV1.14B232,2013-03-22 17:43:00,
2013-03-22 13:48:00,64.2,45.2,30.03,East,90,0.7,0.7,50,0.00,,,0.00,WeatherCatV1.14B232,2013-03-22 17:48:00,
2013-03-22 13:53:00,64.2,45.2,30.03,South,180,0.0,0.0,50,0.00,,,0.00,WeatherCatV1.14B232,2013-03-22 17:53:00,
2013-03-22 13:58:00,64.6,45.5,30.03,NE,45,4.5,5.1,50,0.00,,,0.00,WeatherCatV1.14B232,2013-03-22 17:58:00,
2013-03-22 14:03:00,64.8,45.7,30.03,South,180,0.0,0.0,50,0.00,,,0.00,WeatherCatV1.14B232,2013-03-22 18:03:00,
2013-03-22 14:08:00,64.6,45.5,30.03,ENE,67,5.1,5.1,50,0.00,,,0.00,WeatherCatV1.14B232,2013-03-22 18:08:00,
2013-03-22 14:13:00,64.6,45.5,30.03,SE,135,0.0,0.0,50,0.00,,,0.00,WeatherCatV1.14B232,2013-03-22 18:13:00,
2013-03-22 14:18:00,64.2,45.2,30.03,NNW,337,2.9,2.9,50,0.00,,,0.00,WeatherCatV1.14B232,2013-03-22 18:18:00,
2013-03-22 14:23:00,64.2,45.2,30.03,ESE,112,1.8,1.8,50,0.00,,,0.00,WeatherCatV1.14B232,2013-03-22 18:23:00,
2013-03-22 14:28:00,64.0,45.0,30.03,NNE,22,3.1,6.5,50,0.00,,,0.00,WeatherCatV1.14B232,2013-03-22 18:28:00,
2013-03-22 14:33:00,63.7,44.7,30.02,ENE,67,0.0,3.1,50,0.00,,,0.00,WeatherCatV1.14B232,2013-03-22 18:33:00,
2013-03-22 14:38:00,63.5,45.0,30.02,WSW,247,0.0,0.0,51,0.00,,,0.00,WeatherCatV1.14B232,2013-03-22 18:38:00,
2013-03-22 14:43:00,63.3,44.8,30.01,ENE,67,5.6,5.6,51,0.00,,,0.00,WeatherCatV1.14B232,2013-03-22 18:43:00,
2013-03-22 14:48:00,63.3,44.8,30.01,NNE,22,2.2,2.2,51,0.00,,,0.00,WeatherCatV1.14B232,2013-03-22 18:48:00,
2013-03-22 14:53:00,63.3,44.8,30.01,ENE,67,2.0,2.5,51,0.00,,,0.00,WeatherCatV1.14B232,2013-03-22 18:53:00,
2013-03-22 14:58:00,63.1,45.2,30.01,North,0,0.0,0.0,52,0.00,,,0.00,WeatherCatV1.14B232,2013-03-22 18:58:00,
2013-03-22 15:03:00,63.1,45.2,30.01,SSW,202,0.0,0.0,52,0.00,,,0.00,WeatherCatV1.14B232,2013-03-22 19:03:00,
2013-03-22 15:08:00,63.0,45.0,30.00,ENE,67,1.6,1.6,52,0.00,,,0.00,WeatherCatV1.14B232,2013-03-22 19:08:00,
2013-03-22 15:13:00,63.0,45.0,30.00,NE,45,0.9,0.9,52,0.00,,,0.00,WeatherCatV1.14B232,2013-03-22 19:13:00,
2013-03-22 15:18:00,63.0,45.5,30.00,NNE,22,7.8,7.8,53,0.00,,,0.00,WeatherCatV1.14B232,2013-03-22 19:18:00,
2013-03-22 15:23:00,63.0,45.5,30.00,SE,135,3.1,3.1,53,0.00,,,0.00,WeatherCatV1.14B232,2013-03-22 19:23:00,
2013-03-22 15:28:00,63.0,45.5,30.00,East,90,3.1,3.1,53,0.00,,,0.00,WeatherCatV1.14B232,2013-03-22 19:28:00,
2013-03-22 15:33:00,63.0,45.5,30.00,NNE,22,1.8,1.8,53,0.00,,,0.00,WeatherCatV1.14B232,2013-03-22 19:33:00,
2013-03-22 15:38:00,63.0,45.5,29.99,North,0,1.3,1.3,53,0.00,,,0.00,WeatherCatV1.14B232,2013-03-22 19:38:00,
2013-03-22 15:43:00,63.0,45.5,29.99,ENE,67,0.0,1.6,53,0.00,,,0.00,WeatherCatV1.14B232,2013-03-22 19:43:00,
2013-03-22 15:48:00,63.1,45.6,29.99,NNE,22,2.9,2.9,53,0.00,,,0.00,WeatherCatV1.14B232,2013-03-22 19:48:00,
2013-03-22 15:53:00,63.3,45.6,29.99,SSW,202,0.0,5.1,53,0.00,,,0.00,WeatherCatV1.14B232,2013-03-22 19:53:00,
2013-03-22 15:58:00,63.3,45.8,29.99,ENE,67,5.4,5.4,53,0.00,,,0.00,WeatherCatV1.14B232,2013-03-22 19:58:00,
2013-03-22 16:03:00,63.1,45.6,29.99,ENE,67,0.9,0.9,53,0.00,,,0.00,WeatherCatV1.14B232,2013-03-22 20:03:00,
2013-03-22 16:08:00,63.1,45.2,29.99,NNE,22,2.9,2.9,53,0.00,,,0.00,WeatherCatV1.14B232,2013-03-22 20:08:00,
2013-03-22 16:13:00,63.1,45.2,29.99,SE,135,0.0,0.0,52,0.00,,,0.00,WeatherCatV1.14B232,2013-03-22 20:13:00,
2013-03-22 16:18:00,63.1,45.6,29.99,NNW,337,2.7,2.7,53,0.00,,,0.00,WeatherCatV1.14B232,2013-03-22 20:18:00,
2013-03-22 16:23:00,63.1,45.6,29.99,NNE,22,3.1,3.1,53,0.00,,,0.00,WeatherCatV1.14B232,2013-03-22 20:23:00,
2013-03-22 16:28:00,63.3,45.8,29.99,East,90,0.0,0.0,53,0.00,,,0.00,WeatherCatV1.14B232,2013-03-22 20:28:00,
2013-03-22 16:33:00,63.3,45.8,30.00,SW,225,0.0,0.0,53,0.00,,,0.00,WeatherCatV1.14B232,2013-03-22 20:33:00,
2013-03-22 16:38:00,63.3,45.8,29.99,ENE,67,0.0,0.0,53,0.00,,,0.00,WeatherCatV1.14B232,2013-03-22 20:38:00,
2013-03-22 16:43:00,63.1,46.1,29.99,East,90,0.0,0.0,54,0.00,,,0.00,WeatherCatV1.14B232,2013-03-22 20:43:00,
2013-03-22 16:48:00,63.1,46.1,29.99,SSE,157,0.0,0.0,54,0.00,,,0.00,WeatherCatV1.14B232,2013-03-22 20:48:00,
2013-03-22 16:53:00,63.1,46.1,29.99,ENE,67,0.0,0.0,54,0.00,,,0.00,WeatherCatV1.14B232,2013-03-22 20:53:00,
2013-03-22 16:58:00,63.1,45.6,30.00,NE,45,2.2,3.1,53,0.00,,,0.00,WeatherCatV1.14B232,2013-03-22 20:58:00,
2013-03-22 17:03:00,63.1,45.6,29.99,NNE,22,1.8,1.8,53,0.00,,,0.00,WeatherCatV1.14B232,2013-03-22 21:03:00,
2013-03-22 17:08:00,63.1,46.1,29.99,East,90,0.0,0.0,54,0.00,,,0.00,WeatherCatV1.14B232,2013-03-22 21:08:00,
2013-03-22 17:13:00,63.0,46.0,29.99,East,90,0.0,2.0,54,0.00,,,0.00,WeatherCatV1.14B232,2013-03-22 21:13:00,
2013-03-22 17:18:00,63.0,46.0,29.99,SE,135,0.0,0.0,54,0.00,,,0.00,WeatherCatV1.14B232,2013-03-22 21:18:00,
2013-03-22 17:23:00,62.8,45.6,29.99,ESE,112,3.4,3.4,54,0.00,,,0.00,WeatherCatV1.14B232,2013-03-22 21:23:00,
2013-03-22 17:28:00,62.4,45.5,29.99,North,0,0.0,0.0,54,0.00,,,0.00,WeatherCatV1.14B232,2013-03-22 21:28:00,
2013-03-22 17:33:00,62.4,45.5,29.99,ENE,67,1.6,1.6,54,0.00,,,0.00,WeatherCatV1.14B232,2013-03-22 21:33:00,
2013-03-22 17:38:00,62.4,45.5,29.99,East,90,0.0,2.2,54,0.00,,,0.00,WeatherCatV1.14B232,2013-03-22 21:38:00,
2013-03-22 17:43:00,62.4,45.5,29.99,ENE,67,2.2,2.2,54,0.00,,,0.00,WeatherCatV1.14B232,2013-03-22 21:43:00,
2013-03-22 17:48:00,62.4,46.0,29.98,NE,45,2.2,2.2,55,0.00,,,0.00,WeatherCatV1.14B232,2013-03-22 21:48:00,
2013-03-22 17:53:00,62.2,45.8,29.99,ESE,112,2.2,2.2,55,0.00,,,0.00,WeatherCatV1.14B232,2013-03-22 21:53:00,
2013-03-22 17:58:00,62.4,46.0,29.98,North,0,2.0,2.0,55,0.00,,,0.00,WeatherCatV1.14B232,2013-03-22 21:58:00,
2013-03-22 18:03:00,62.4,46.0,29.98,ENE,67,2.0,2.0,55,0.00,,,0.00,WeatherCatV1.14B232,2013-03-22 22:03:00,
2013-03-22 18:08:00,62.4,46.5,29.98,ENE,67,0.0,0.0,56,0.00,,,0.00,WeatherCatV1.14B232,2013-03-22 22:08:00,
2013-03-22 18:13:00,62.4,46.5,29.98,ENE,67,4.9,4.9,56,0.00,,,0.00,WeatherCatV1.14B232,2013-03-22 22:13:00,
2013-03-22 18:18:00,62.4,46.5,29.98,ESE,112,5.1,5.1,56,0.00,,,0.00,WeatherCatV1.14B232,2013-03-22 22:18:00,
2013-03-22 18:23:00,62.2,46.3,29.98,NNE,22,0.0,0.0,56,0.00,,,0.00,WeatherCatV1.14B232,2013-03-22 22:23:00,
2013-03-22 18:28:00,62.1,46.6,29.98,ENE,67,1.6,1.6,57,0.00,,,0.00,WeatherCatV1.14B232,2013-03-22 22:28:00,
2013-03-22 18:33:00,61.9,46.5,29.99,ENE,67,1.6,1.6,57,0.00,,,0.00,WeatherCatV1.14B232,2013-03-22 22:33:00,
2013-03-22 18:38:00,61.7,46.3,29.99,SSE,157,0.0,0.0,57,0.00,,,0.00,WeatherCatV1.14B232,2013-03-22 22:38:00,
2013-03-22 18:43:00,61.9,46.5,29.99,NNE,22,1.8,1.8,57,0.00,,,0.00,WeatherCatV1.14B232,2013-03-22 22:43:00,
2013-03-22 18:48:00,61.9,46.5,29.99,NE,45,0.0,0.0,57,0.00,,,0.00,WeatherCatV1.14B232,2013-03-22 22:48:00,
2013-03-22 18:53:00,61.9,46.5,29.99,SE,135,0.0,0.0,57,0.00,,,0.00,WeatherCatV1.14B232,2013-03-22 22:53:00,
2013-03-22 18:58:00,61.9,46.9,29.99,NE,45,0.0,3.1,58,0.00,,,0.00,WeatherCatV1.14B232,2013-03-22 22:58:00,
2013-03-22 19:03:00,61.7,46.8,29.99,East,90,0.0,0.0,58,0.00,,,0.00,WeatherCatV1.14B232,2013-03-22 23:03:00,
2013-03-22 19:08:00,61.5,46.6,30.00,NE,45,3.8,3.8,58,0.00,,,0.00,WeatherCatV1.14B232,2013-03-22 23:08:00,
2013-03-22 19:13:00,61.3,46.5,30.00,NE,45,0.0,5.4,58,0.00,,,0.00,WeatherCatV1.14B232,2013-03-22 23:13:00,
2013-03-22 19:18:00,61.2,46.3,29.99,ESE,112,0.0,0.0,58,0.00,,,0.00,WeatherCatV1.14B232,2013-03-22 23:18:00,
2013-03-22 19:23:00,61.0,46.6,29.99,ESE,112,0.0,0.0,59,0.00,,,0.00,WeatherCatV1.14B232,2013-03-22 23:23:00,
2013-03-22 19:28:00,60.6,46.3,30.00,NNE,22,2.5,3.6,59,0.00,,,0.00,WeatherCatV1.14B232,2013-03-22 23:28:00,
2013-03-22 19:33:00,60.4,46.1,30.00,ENE,67,1.6,1.6,59,0.00,,,0.00,WeatherCatV1.14B232,2013-03-22 23:33:00,
2013-03-22 19:38:00,60.4,46.6,30.01,North,0,2.2,2.2,60,0.00,,,0.00,WeatherCatV1.14B232,2013-03-22 23:38:00,
2013-03-22 19:43:00,60.3,46.4,30.01,NE,45,2.0,2.7,60,0.00,,,0.00,WeatherCatV1.14B232,2013-03-22 23:43:00,
2013-03-22 19:48:00,60.1,46.2,30.02,NE,45,1.6,1.6,60,0.00,,,0.00,WeatherCatV1.14B232,2013-03-22 23:48:00,
2013-03-22 19:53:00,60.1,46.2,30.02,NNE,22,3.6,3.6,60,0.00,,,0.00,WeatherCatV1.14B232,2013-03-22 23:53:00,
2013-03-22 19:58:00,60.1,46.6,30.02,NE,45,1.3,2.9,61,0.00,,,0.00,WeatherCatV1.14B232,2013-03-22 23:58:00,
2013-03-22 20:03:00,59.7,46.3,30.01,NNE,22,4.9,4.9,61,0.00,,,0.00,WeatherCatV1.14B232,2013-03-23 00:03:00,
2013-03-22 20:08:00,59.5,46.5,30.01,NNW,337,0.0,2.5,62,0.00,,,0.00,WeatherCatV1.14B232,2013-03-23 00:08:00,
2013-03-22 20:13:00,59.5,46.9,30.01,ENE,67,0.0,2.7,63,0.00,,,0.00,WeatherCatV1.14B232,2013-03-23 00:13:00,
2013-03-22 20:18:00,59.4,47.2,30.02,NNE,22,3.8,3.8,64,0.00,,,0.00,WeatherCatV1.14B232,2013-03-23 00:18:00,
2013-03-22 20:23:00,59.2,47.4,30.02,NE,45,1.1,1.1,65,0.00,,,0.00,WeatherCatV1.14B232,2013-03-23 00:23:00,
2013-03-22 20:28:00,59.2,47.4,30.02,East,90,2.0,2.0,65,0.00,,,0.00,WeatherCatV1.14B232,2013-03-23 00:28:00,
2013-03-22 20:33:00,59.2,47.4,30.02,ESE,112,0.0,0.0,65,0.00,,,0.00,WeatherCatV1.14B232,2013-03-23 00:33:00,
2013-03-22 20:38:00,59.2,47.4,30.02,ENE,67,6.7,6.7,65,0.00,,,0.00,WeatherCatV1.14B232,2013-03-23 00:38:00,
2013-03-22 20:43:00,59.2,47.4,30.02,NE,45,4.2,4.2,65,0.00,,,0.00,WeatherCatV1.14B232,2013-03-23 00:43:00,
2013-03-22 20:48:00,59.2,47.4,30.02,North,0,2.5,2.5,65,0.00,,,0.00,WeatherCatV1.14B232,2013-03-23 00:48:00,
2013-03-22 20:53:00,59.2,47.4,30.03,ENE,67,2.9,2.9,65,0.00,,,0.00,WeatherCatV1.14B232,2013-03-23 00:53:00,
2013-03-22 20:58:00,59.2,47.4,30.02,ESE,112,4.5,4.5,65,0.00,,,0.00,WeatherCatV1.14B232,2013-03-23 00:58:00,
2013-03-22 21:03:00,59.2,47.8,30.02,SE,135,0.0,0.0,66,0.00,,,0.00,WeatherCatV1.14B232,2013-03-23 01:03:00,
2013-03-22 21:08:00,59.0,47.6,30.02,ESE,112,1.3,1.3,66,0.00,,,0.00,WeatherCatV1.14B232,2013-03-23 01:08:00,
2013-03-22 21:13:00,59.0,47.6,30.01,ESE,112,0.0,1.8,66,0.00,,,0.00,WeatherCatV1.14B232,2013-03-23 01:13:00,
2013-03-22 21:18:00,58.8,47.4,30.01,NE,45,2.5,2.5,66,0.00,,,0.00,WeatherCatV1.14B232,2013-03-23 01:18:00,
2013-03-22 21:23:00,58.8,47.9,30.01,ENE,67,1.6,2.0,67,0.00,,,0.00,WeatherCatV1.14B232,2013-03-23 01:23:00,
2013-03-22 21:28:00,58.8,47.9,30.01,ESE,112,2.0,2.0,67,0.00,,,0.00,WeatherCatV1.14B232,2013-03-23 01:28:00,
2013-03-22 21:33:00,58.8,48.3,30.02,ESE,112,1.3,1.3,68,0.00,,,0.00,WeatherCatV1.14B232,2013-03-23 01:33:00,
2013-03-22 21:38:00,58.8,48.3,30.01,ENE,67,0.0,0.0,68,0.00,,,0.00,WeatherCatV1.14B232,2013-03-23 01:38:00,
2013-03-22 21:43:00,58.8,48.3,30.02,NE,45,2.5,2.5,68,0.00,,,0.00,WeatherCatV1.14B232,2013-03-23 01:43:00,
2013-03-22 21:48:00,58.6,48.1,30.02,NE,45,0.0,0.0,68,0.00,,,0.00,WeatherCatV1.14B232,2013-03-23 01:48:00,
2013-03-22 21:53:00,58.6,48.1,30.03,ENE,67,0.0,0.0,68,0.00,,,0.00,WeatherCatV1.14B232,2013-03-23 01:53:00,
2013-03-22 21:58:00,58.6,48.1,30.03,ENE,67,0.0,2.2,68,0.00,,,0.00,WeatherCatV1.14B232,2013-03-23 01:58:00,
2013-03-22 22:03:00,58.6,48.1,30.03,SE,135,0.0,0.0,68,0.00,,,0.00,WeatherCatV1.14B232,2013-03-23 02:03:00,
2013-03-22 22:08:00,58.6,48.5,30.03,ENE,67,2.2,2.2,69,0.00,,,0.00,WeatherCatV1.14B232,2013-03-23 02:08:00,
2013-03-22 22:13:00,58.6,48.5,30.03,SE,135,0.0,0.0,69,0.00,,,0.00,WeatherCatV1.14B232,2013-03-23 02:13:00,
2013-03-22 22:18:00,58.6,48.5,30.03,SSE,157,0.0,0.0,69,0.00,,,0.00,WeatherCatV1.14B232,2013-03-23 02:18:00,
2013-03-22 22:23:00,58.6,48.5,30.03,East,90,4.5,4.5,69,0.00,,,0.00,WeatherCatV1.14B232,2013-03-23 02:23:00,
2013-03-22 22:28:00,58.6,48.5,30.01,ESE,112,2.2,2.2,69,0.00,,,0.00,WeatherCatV1.14B232,2013-03-23 02:28:00,
2013-03-22 22:33:00,58.5,48.7,30.01,NE,45,0.0,0.0,70,0.00,,,0.00,WeatherCatV1.14B232,2013-03-23 02:33:00,
2013-03-22 22:38:00,58.3,48.6,30.02,ESE,112,2.5,2.5,70,0.00,,,0.00,WeatherCatV1.14B232,2013-03-23 02:38:00,
2013-03-22 22:43:00,58.5,48.7,30.02,SE,135,0.0,0.0,70,0.00,,,0.00,WeatherCatV1.14B232,2013-03-23 02:43:00,
2013-03-22 22:48:00,58.5,48.7,30.02,ENE,67,1.8,1.8,70,0.00,,,0.00,WeatherCatV1.14B232,2013-03-23 02:48:00,
2013-03-22 22:53:00,58.5,49.1,30.01,SSE,157,0.0,3.8,71,0.00,,,0.00,WeatherCatV1.14B232,2013-03-23 02:53:00,
2013-03-22 22:58:00,58.5,49.1,30.01,SSE,157,0.0,0.0,71,0.00,,,0.00,WeatherCatV1.14B232,2013-03-23 02:58:00,
2013-03-22 23:03:00,58.3,48.9,30.01,ENE,67,1.1,1.1,71,0.00,,,0.00,WeatherCatV1.14B232,2013-03-23 03:03:00,
2013-03-22 23:08:00,58.3,48.9,30.01,NE,45,0.0,1.3,71,0.00,,,0.00,WeatherCatV1.14B232,2013-03-23 03:08:00,
2013-03-22 23:13:00,58.3,49.3,30.01,SSE,157,0.0,0.0,72,0.00,,,0.00,WeatherCatV1.14B232,2013-03-23 03:13:00,
2013-03-22 23:18:00,58.3,49.3,30.01,SE,135,0.0,0.0,72,0.00,,,0.00,WeatherCatV1.14B232,2013-03-23 03:18:00,
2013-03-22 23:23:00,58.3,49.3,30.01,SSE,157,0.0,0.0,72,0.00,,,0.00,WeatherCatV1.14B232,2013-03-23 03:23:00,
2013-03-22 23:28:00,58.3,49.3,30.00,SE,135,0.0,0.0,72,0.00,,,0.00,WeatherCatV1.14B232,2013-03-23 03:28:00,
2013-03-22 23:33:00,58.1,49.1,29.99,SE,135,0.0,0.0,72,0.00,,,0.00,WeatherCatV1.14B232,2013-03-23 03:33:00,
2013-03-22 23:38:00,58.1,49.5,29.99,WSW,247,0.0,0.0,73,0.00,,,0.00,WeatherCatV1.14B232,2013-03-23 03:38:00,
2013-03-22 23:43:00,58.1,49.5,30.00,NNW,337,1.3,1.3,73,0.00,,,0.00,WeatherCatV1.14B232,2013-03-23 03:43:00,
2013-03-22 23:48:00,58.1,49.5,30.00,North,0,0.0,0.0,73,0.00,,,0.00,WeatherCatV1.14B232,2013-03-23 03:48:00,
2013-03-22 23:53:00,58.1,49.5,30.00,ENE,67,1.1,2.0,73,0.00,,,0.00,WeatherCatV1.14B232,2013-03-23 03:53:00,
2013-03-22 23:58:00,58.3,50.0,30.00,ESE,112,0.0,0.0,74,0.00,,,0.00,WeatherCatV1.14B232,2013-03-23 03:58:00,